Time;durP1;ratioP1;P1;durP2;ratioP2;P2;SDS_P1;SDS_P2;PMS_P1;PMS_P2;Temp;Humidity;BMP_temperature;BMP_pressure;BME280_temperature;BME280_humidity;BME280_pressure;Samples;Min_cycle;Max_cycle;Signal;HPM_P1;HPM_P2
2022/06/20 00:00:01;;;;;;;;;;;20.40;52.70;;;;;;5168870;27;20394;-46
2022/06/20 00:02:27;;;;;;;;;;;20.30;52.50;;;;;;5145027;27;19927;-45
2022/06/20 00:04:53;;;;;;;;;;;20.30;52.20;;;;;;5163663;27;19927;-47
2022/06/20 00:07:19;;;;;;;;;;;20.40;56.30;;;;;;5150550;27;20339;-49
2022/06/20 00:09:45;;;;;;;;;;;21.20;59.60;;;;;;5163324;27;19931;-47
2022/06/20 00:12:21;;;;;;;;;;;21.80;60.10;;;;;;5166597;27;19974;-54
2022/06/20 00:14:47;;;;;;;;;;;21.50;57.90;;;;;;5166986;27;19923;-45
2022/06/20 00:17:14;;;;;;;;;;;21.00;56.10;;;;;;5163042;27;19923;-48
2022/06/20 00:19:42;;;;;;;;;;;20.70;54.70;;;;;;5168786;27;19933;-45
2022/06/20 00:22:11;;;;;;;;;;;20.60;54.10;;;;;;5162933;27;19990;-44
2022/06/20 00:24:37;;;;;;;;;;;20.40;53.50;;;;;;5163643;27;19944;-44
2022/06/20 00:27:06;;;;;;;;;;;20.30;53.30;;;;;;5149553;27;19974;-46
2022/06/20 00:29:35;;;;;;;;;;;20.30;52.80;;;;;;5162253;27;19931;-46
2022/06/20 00:32:01;;;;;;;;;;;20.20;52.70;;;;;;5161211;27;20507;-47
2022/06/20 00:34:27;;;;;;;;;;;20.10;52.50;;;;;;5168002;27;19929;-47
2022/06/20 00:36:53;;;;;;;;;;;20.20;54.60;;;;;;5163003;27;19926;-48
2022/06/20 00:39:19;;;;;;;;;;;20.90;59.40;;;;;;5166896;27;19930;-55
2022/06/20 00:41:45;;;;;;;;;;;21.50;60.70;;;;;;5164965;27;19922;-47
2022/06/20 00:44:12;;;;;;;;;;;21.80;59.60;;;;;;5142494;27;19930;-48
2022/06/20 00:46:42;;;;;;;;;;;21.10;57.20;;;;;;5149667;27;20441;-47
2022/06/20 00:49:10;;;;;;;;;;;20.80;55.70;;;;;;5142228;27;19923;-46
2022/06/20 00:51:40;;;;;;;;;;;20.70;54.40;;;;;;5143241;27;19934;-45
2022/06/20 00:54:11;;;;;;;;;;;20.40;54.10;;;;;;5149446;27;20391;-47
2022/06/20 00:56:40;;;;;;;;;;;20.30;53.50;;;;;;5162673;27;20366;-47
2022/06/20 00:59:07;;;;;;;;;;;20.10;53.10;;;;;;5162548;27;19933;-46
2022/06/20 01:01:37;;;;;;;;;;;20.10;53.10;;;;;;5149867;27;20279;-46
2022/06/20 01:04:04;;;;;;;;;;;20.20;52.60;;;;;;5143118;27;19927;-48
2022/06/20 01:06:30;;;;;;;;;;;20.00;52.60;;;;;;5163415;27;20369;-53
2022/06/20 01:08:57;;;;;;;;;;;20.50;58.30;;;;;;5147150;27;19923;-45
2022/06/20 01:11:26;;;;;;;;;;;21.20;60.90;;;;;;5143463;27;19923;-46
2022/06/20 01:13:52;;;;;;;;;;;21.80;61.50;;;;;;5149756;27;19973;-47
2022/06/20 01:16:21;;;;;;;;;;;21.30;58.90;;;;;;5162746;27;19923;-46
2022/06/20 01:18:47;;;;;;;;;;;20.90;57.10;;;;;;5144062;27;20396;-47
2022/06/20 01:21:14;;;;;;;;;;;20.50;56.00;;;;;;5167943;27;19923;-45
2022/06/20 01:23:45;;;;;;;;;;;20.40;55.30;;;;;;5162339;27;19927;-47
2022/06/20 01:26:15;;;;;;;;;;;20.30;54.50;;;;;;5161488;27;20013;-50
2022/06/20 01:28:42;;;;;;;;;;;20.20;54.40;;;;;;5152747;27;20030;-48
2022/06/20 01:31:08;;;;;;;;;;;20.30;53.60;;;;;;5147512;27;19930;-48
2022/06/20 01:33:34;;;;;;;;;;;20.20;53.70;;;;;;5149835;27;20029;-53
2022/06/20 01:38:44;;;;;;;;;;;20.30;57.70;;;;;;5166654;27;19961;-49
2022/06/20 01:43:55;;;;;;;;;;;21.60;63.80;;;;;;5170117;27;19937;-45
2022/06/20 01:46:21;;;;;;;;;;;21.40;61.10;;;;;;5146666;27;19927;-48
2022/06/20 01:48:49;;;;;;;;;;;21.00;58.70;;;;;;5171293;27;20402;-44
2022/06/20 01:51:24;;;;;;;;;;;20.50;57.20;;;;;;5166254;27;19930;-48
2022/06/20 01:53:50;;;;;;;;;;;20.30;56.10;;;;;;5147502;27;19951;-47
2022/06/20 01:56:16;;;;;;;;;;;20.00;55.50;;;;;;5172090;27;20009;-45
2022/06/20 01:58:44;;;;;;;;;;;20.10;54.60;;;;;;5166214;27;19923;-47
2022/06/20 02:01:10;;;;;;;;;;;20.30;56.80;;;;;;5147113;27;19978;-51
2022/06/20 02:03:36;;;;;;;;;;;21.00;62.80;;;;;;5169491;27;19927;-47
2022/06/20 02:06:02;;;;;;;;;;;21.60;65.10;;;;;;5144862;27;19987;-50
2022/06/20 02:08:28;;;;;;;;;;;21.30;61.80;;;;;;5166504;27;19922;-52
2022/06/20 02:10:59;;;;;;;;;;;20.80;59.20;;;;;;5152747;27;19974;-47
2022/06/20 02:13:25;;;;;;;;;;;20.40;57.50;;;;;;5165666;27;19922;-44
2022/06/20 02:15:51;;;;;;;;;;;20.30;56.50;;;;;;5152814;27;19946;-49
2022/06/20 02:18:17;;;;;;;;;;;20.20;55.10;;;;;;5145034;27;19927;-50
2022/06/20 02:20:47;;;;;;;;;;;19.90;55.10;;;;;;5163980;27;19931;-48
2022/06/20 02:23:22;;;;;;;;;;;20.00;57.70;;;;;;5150637;27;20359;-50
2022/06/20 02:25:48;;;;;;;;;;;20.80;63.20;;;;;;5165081;27;19927;-47
2022/06/20 02:28:16;;;;;;;;;;;21.60;65.20;;;;;;5165270;27;19954;-49
2022/06/20 02:30:42;;;;;;;;;;;21.50;62.90;;;;;;5152131;27;20053;-47
2022/06/20 02:33:10;;;;;;;;;;;20.90;59.90;;;;;;5165663;27;20374;-47
2022/06/20 02:35:36;;;;;;;;;;;20.60;57.80;;;;;;5146622;27;19926;-51
2022/06/20 02:38:02;;;;;;;;;;;20.20;56.80;;;;;;5150115;27;20488;-45
2022/06/20 02:40:29;;;;;;;;;;;20.30;55.70;;;;;;5144776;27;19938;-48
2022/06/20 02:42:56;;;;;;;;;;;20.00;55.20;;;;;;5150224;27;20268;-47
2022/06/20 02:45:22;;;;;;;;;;;20.00;54.60;;;;;;5146142;27;19923;-46
2022/06/20 02:47:48;;;;;;;;;;;20.00;54.40;;;;;;5165265;27;19930;-46
2022/06/20 02:50:16;;;;;;;;;;;20.00;54.10;;;;;;5152395;27;20015;-47
2022/06/20 02:52:47;;;;;;;;;;;19.90;54.00;;;;;;5165370;27;19949;-47
2022/06/20 02:55:12;;;;;;;;;;;20.20;59.80;;;;;;5164966;27;19932;-46
2022/06/20 02:57:40;;;;;;;;;;;20.80;64.40;;;;;;5168858;27;20014;-47
2022/06/20 03:00:08;;;;;;;;;;;21.40;66.00;;;;;;5145314;27;20270;-47
2022/06/20 03:02:34;;;;;;;;;;;21.80;64.50;;;;;;5167594;27;19927;-56
2022/06/20 03:05:01;;;;;;;;;;;21.20;61.20;;;;;;5149128;27;19971;-46
2022/06/20 03:07:27;;;;;;;;;;;20.80;58.80;;;;;;5164859;27;20013;-48
2022/06/20 03:10:02;;;;;;;;;;;20.30;57.30;;;;;;5150121;27;19967;-47
2022/06/20 03:12:27;;;;;;;;;;;20.20;56.40;;;;;;5164487;27;19928;-48
2022/06/20 03:14:55;;;;;;;;;;;20.10;55.40;;;;;;5163855;27;20433;-46
2022/06/20 03:17:22;;;;;;;;;;;20.10;55.50;;;;;;5168326;27;20014;-47
2022/06/20 03:19:48;;;;;;;;;;;20.20;54.40;;;;;;5163834;27;19929;-46
2022/06/20 03:22:16;;;;;;;;;;;20.10;54.30;;;;;;5164159;27;20173;-46
2022/06/20 03:24:42;;;;;;;;;;;19.80;54.20;;;;;;5150041;27;19926;-48
2022/06/20 03:27:10;;;;;;;;;;;20.30;61.20;;;;;;5145852;27;19930;-48
2022/06/20 03:29:37;;;;;;;;;;;21.00;64.90;;;;;;5150610;27;19929;-57
2022/06/20 03:32:03;;;;;;;;;;;21.60;66.20;;;;;;5146378;27;19927;-50
2022/06/20 03:34:29;;;;;;;;;;;21.70;64.00;;;;;;5142175;27;19985;-47
2022/06/20 03:36:54;;;;;;;;;;;21.00;60.50;;;;;;5168558;27;19927;-48
2022/06/20 03:39:20;;;;;;;;;;;20.80;58.90;;;;;;5163615;27;19982;-50
2022/06/20 03:41:46;;;;;;;;;;;20.60;56.80;;;;;;5163930;27;19927;-46
2022/06/20 03:44:15;;;;;;;;;;;20.40;56.00;;;;;;5169498;27;19945;-45
2022/06/20 03:46:46;;;;;;;;;;;20.30;55.10;;;;;;5164154;27;19967;-45
2022/06/20 03:49:12;;;;;;;;;;;20.10;55.20;;;;;;5163735;27;20293;-47
2022/06/20 03:51:39;;;;;;;;;;;20.10;54.50;;;;;;5168352;27;19922;-49
2022/06/20 03:54:10;;;;;;;;;;;20.10;54.60;;;;;;5162072;27;19933;-48
2022/06/20 03:56:51;;;;;;;;;;;19.90;54.40;;;;;;5149853;27;20297;-47
2022/06/20 03:59:18;;;;;;;;;;;20.30;58.80;;;;;;5168745;27;20123;-47
2022/06/20 04:01:53;;;;;;;;;;;21.00;63.30;;;;;;5143386;27;20485;-46
2022/06/20 04:04:21;;;;;;;;;;;21.60;64.40;;;;;;5169219;27;19936;-46
2022/06/20 04:06:50;;;;;;;;;;;21.70;62.30;;;;;;5144957;27;20013;-47
2022/06/20 04:12:12;;;;;;;;;;;20.60;57.40;;;;;;5165494;27;19923;-53
2022/06/20 04:14:46;;;;;;;;;;;20.30;56.00;;;;;;5164294;27;19929;-49
2022/06/20 04:20:04;;;;;;;;;;;19.80;55.40;;;;;;5161752;27;20413;-56
2022/06/20 04:22:31;;;;;;;;;;;20.20;57.50;;;;;;5168352;27;19923;-46
2022/06/20 04:24:59;;;;;;;;;;;20.80;62.80;;;;;;5163343;27;19927;-47
2022/06/20 04:27:34;;;;;;;;;;;21.40;64.80;;;;;;5168490;27;19930;-48
2022/06/20 04:30:03;;;;;;;;;;;21.70;63.40;;;;;;5160795;27;19927;-46
2022/06/20 04:32:34;;;;;;;;;;;21.00;60.10;;;;;;5143380;27;19925;-49
2022/06/20 04:35:09;;;;;;;;;;;20.60;57.60;;;;;;5149730;27;20407;-46
2022/06/20 04:37:36;;;;;;;;;;;20.30;56.40;;;;;;5144631;27;20025;-47
2022/06/20 04:40:15;;;;;;;;;;;20.00;55.60;;;;;;5142416;27;20412;-48
2022/06/20 04:42:41;;;;;;;;;;;20.00;55.00;;;;;;5168493;27;20363;-46
2022/06/20 04:45:20;;;;;;;;;;;20.20;58.90;;;;;;5163020;27;19937;-46
2022/06/20 04:47:51;;;;;;;;;;;20.90;63.70;;;;;;5142832;27;20014;-47
2022/06/20 04:50:18;;;;;;;;;;;21.60;65.30;;;;;;5146804;27;19933;-47
2022/06/20 04:52:43;;;;;;;;;;;21.30;61.80;;;;;;5143369;27;19922;-50
2022/06/20 04:55:12;;;;;;;;;;;20.80;59.40;;;;;;5162679;27;20201;-44
2022/06/20 04:57:38;;;;;;;;;;;20.50;57.60;;;;;;5149653;27;19977;-46
2022/06/20 05:00:04;;;;;;;;;;;20.20;56.10;;;;;;5162759;27;19926;-46
2022/06/20 05:02:30;;;;;;;;;;;19.90;55.70;;;;;;5167075;27;20319;-57
2022/06/20 05:04:56;;;;;;;;;;;19.80;55.00;;;;;;5143741;27;19927;-47
2022/06/20 05:07:23;;;;;;;;;;;20.00;54.20;;;;;;5140622;27;19976;-47
2022/06/20 05:09:56;;;;;;;;;;;20.10;53.80;;;;;;5167520;27;20033;-47
2022/06/20 05:12:33;;;;;;;;;;;19.90;53.90;;;;;;5162262;27;20312;-48
2022/06/20 05:15:05;;;;;;;;;;;20.40;60.20;;;;;;5144207;27;20493;-48
2022/06/20 05:17:31;;;;;;;;;;;21.00;64.00;;;;;;5168271;27;19923;-48
2022/06/20 05:19:58;;;;;;;;;;;21.70;64.40;;;;;;5162582;27;20483;-50
2022/06/20 05:22:29;;;;;;;;;;;21.40;61.40;;;;;;5162478;27;20037;-48
2022/06/20 05:24:55;;;;;;;;;;;20.80;58.80;;;;;;5145697;27;20008;-44
2022/06/20 05:27:25;;;;;;;;;;;20.50;57.20;;;;;;5141203;27;19927;-46
2022/06/20 05:29:51;;;;;;;;;;;20.30;56.00;;;;;;5143657;27;19922;-47
2022/06/20 05:32:22;;;;;;;;;;;19.90;55.50;;;;;;5149406;27;19923;-48
2022/06/20 05:34:58;;;;;;;;;;;19.70;55.10;;;;;;5162507;27;19937;-49
2022/06/20 05:37:36;;;;;;;;;;;20.50;61.90;;;;;;5165682;27;19923;-55
2022/06/20 05:40:05;;;;;;;;;;;21.20;64.60;;;;;;5167808;27;19931;-47
2022/06/20 05:42:31;;;;;;;;;;;21.80;63.30;;;;;;5160946;27;20504;-46
2022/06/20 05:44:57;;;;;;;;;;;21.00;60.10;;;;;;5166719;27;20017;-47
2022/06/20 05:47:30;;;;;;;;;;;20.70;57.80;;;;;;5162220;27;20021;-46
2022/06/20 05:49:57;;;;;;;;;;;20.50;56.40;;;;;;5144089;27;19927;-45
2022/06/20 05:52:24;;;;;;;;;;;20.30;55.60;;;;;;5167913;27;20380;-45
2022/06/20 05:55:13;;;;;;;;;;;20.20;54.80;;;;;;5162581;27;19942;-48
2022/06/20 05:57:38;;;;;;;;;;;19.90;54.30;;;;;;5148432;27;20462;-49
2022/06/20 06:00:17;;;;;;;;;;;20.70;61.20;;;;;;5147993;27;20021;-47
2022/06/20 06:02:58;;;;;;;;;;;21.30;64.10;;;;;;5160770;27;19978;-48
2022/06/20 06:05:26;;;;;;;;;;;21.70;62.80;;;;;;5161928;27;20354;-46
2022/06/20 06:07:53;;;;;;;;;;;20.80;59.50;;;;;;5167350;27;19923;-48
2022/06/20 06:10:37;;;;;;;;;;;20.40;57.60;;;;;;5162415;27;19923;-49
2022/06/20 06:13:21;;;;;;;;;;;20.10;56.10;;;;;;5163165;27;20013;-46
2022/06/20 06:18:39;;;;;;;;;;;20.00;55.90;;;;;;5169573;27;20422;-47
2022/06/20 06:21:05;;;;;;;;;;;20.80;62.80;;;;;;5145410;27;19930;-50
2022/06/20 06:23:30;;;;;;;;;;;21.50;64.40;;;;;;5170476;27;19931;-52
2022/06/20 06:25:56;;;;;;;;;;;21.60;63.00;;;;;;5165612;27;19922;-46
2022/06/20 06:28:22;;;;;;;;;;;21.00;59.90;;;;;;5165514;27;20281;-48
2022/06/20 06:30:49;;;;;;;;;;;20.70;57.80;;;;;;5170811;27;19929;-49
2022/06/20 06:33:20;;;;;;;;;;;20.50;56.20;;;;;;5145220;27;20445;-46
2022/06/20 06:35:48;;;;;;;;;;;20.20;55.10;;;;;;5165280;27;19923;-45
2022/06/20 06:38:15;;;;;;;;;;;20.00;54.90;;;;;;5148450;27;19930;-48
2022/06/20 06:40:46;;;;;;;;;;;19.80;54.90;;;;;;5164306;27;19927;-44
2022/06/20 06:43:19;;;;;;;;;;;20.10;54.10;;;;;;5149878;27;20400;-57
2022/06/20 06:45:45;;;;;;;;;;;20.10;53.50;;;;;;5170644;27;19922;-47
2022/06/20 06:48:27;;;;;;;;;;;20.00;55.90;;;;;;5164963;27;19923;-49
2022/06/20 06:50:55;;;;;;;;;;;20.70;62.30;;;;;;5169977;27;19931;-53
2022/06/20 06:53:22;;;;;;;;;;;21.40;64.10;;;;;;5166549;27;19923;-49
2022/06/20 06:55:49;;;;;;;;;;;21.80;63.30;;;;;;5145122;27;19929;-48
2022/06/20 06:58:18;;;;;;;;;;;21.20;59.90;;;;;;5169143;27;20006;-46
2022/06/20 07:00:45;;;;;;;;;;;20.80;57.90;;;;;;5145790;27;19922;-46
2022/06/20 07:03:19;;;;;;;;;;;20.50;56.70;;;;;;5146167;27;19929;-50
2022/06/20 07:05:47;;;;;;;;;;;20.40;55.40;;;;;;5170244;27;19926;-46
2022/06/20 07:08:13;;;;;;;;;;;20.20;55.00;;;;;;5146039;27;19931;-46
2022/06/20 07:10:42;;;;;;;;;;;20.20;54.30;;;;;;5164793;27;19952;-45
2022/06/20 07:13:13;;;;;;;;;;;20.30;53.80;;;;;;5169979;27;20017;-47
2022/06/20 07:15:39;;;;;;;;;;;20.10;53.80;;;;;;5142930;27;20298;-45
2022/06/20 07:18:12;;;;;;;;;;;19.90;53.70;;;;;;5166327;27;19927;-55
2022/06/20 07:20:39;;;;;;;;;;;20.50;59.90;;;;;;5151096;27;19992;-46
2022/06/20 07:23:06;;;;;;;;;;;21.10;63.20;;;;;;5164173;27;20021;-45
2022/06/20 07:25:35;;;;;;;;;;;21.80;63.30;;;;;;5169591;27;19923;-48
2022/06/20 07:28:03;;;;;;;;;;;21.30;60.10;;;;;;5146258;27;20046;-46
2022/06/20 07:30:32;;;;;;;;;;;20.80;58.10;;;;;;5145600;27;20297;-50
2022/06/20 07:33:04;;;;;;;;;;;20.50;56.40;;;;;;5167860;27;20282;-50
2022/06/20 07:35:31;;;;;;;;;;;20.20;55.70;;;;;;5163165;27;20042;-47
2022/06/20 07:38:00;;;;;;;;;;;20.00;55.00;;;;;;5163655;27;20404;-46
2022/06/20 07:40:52;;;;;;;;;;;20.00;54.40;;;;;;5169158;27;19975;-47
2022/06/20 07:43:19;;;;;;;;;;;20.00;53.90;;;;;;5156740;27;19926;-47
2022/06/20 07:45:47;;;;;;;;;;;19.80;53.90;;;;;;5164193;27;19929;-50
2022/06/20 07:48:13;;;;;;;;;;;19.80;54.60;;;;;;5169370;27;20301;-48
2022/06/20 07:50:42;;;;;;;;;;;20.60;60.50;;;;;;5143921;27;19987;-48
2022/06/20 07:53:17;;;;;;;;;;;21.20;63.00;;;;;;5162279;27;20112;-46
2022/06/20 07:55:44;;;;;;;;;;;21.80;63.10;;;;;;5150075;27;19922;-47
2022/06/20 07:58:12;;;;;;;;;;;21.40;60.30;;;;;;5163683;27;19923;-46
2022/06/20 08:00:48;;;;;;;;;;;20.90;58.30;;;;;;5166734;27;20454;-56
2022/06/20 08:03:16;;;;;;;;;;;20.70;56.50;;;;;;5150684;27;20077;-50
2022/06/20 08:05:44;;;;;;;;;;;20.40;55.70;;;;;;5143802;27;20152;-46
2022/06/20 08:08:11;;;;;;;;;;;20.30;55.10;;;;;;5168880;27;19926;-48
2022/06/20 08:10:46;;;;;;;;;;;20.20;54.30;;;;;;5142439;27;19945;-48
2022/06/20 08:13:12;;;;;;;;;;;20.20;54.10;;;;;;5162786;27;19927;-48
2022/06/20 08:15:40;;;;;;;;;;;20.00;53.80;;;;;;5168516;27;19926;-46
2022/06/20 08:18:06;;;;;;;;;;;19.90;53.60;;;;;;5142417;27;19978;-47
2022/06/20 08:20:32;;;;;;;;;;;20.10;56.10;;;;;;5163309;27;19935;-45
2022/06/20 08:22:59;;;;;;;;;;;20.80;61.10;;;;;;5150164;27;20010;-46
2022/06/20 08:25:27;;;;;;;;;;;21.30;62.70;;;;;;5144819;27;19957;-48
2022/06/20 08:27:56;;;;;;;;;;;21.90;62.20;;;;;;5141233;27;19923;-47
2022/06/20 08:30:30;;;;;;;;;;;21.20;59.50;;;;;;5167185;27;20404;-46
2022/06/20 08:33:01;;;;;;;;;;;20.80;57.20;;;;;;5143415;27;21308;-47
2022/06/20 08:35:27;;;;;;;;;;;20.50;55.80;;;;;;5165725;27;20322;-58
2022/06/20 08:38:13;;;;;;;;;;;20.30;54.60;;;;;;5165359;27;20305;-44
2022/06/20 08:41:03;;;;;;;;;;;20.40;54.00;;;;;;5162935;27;19922;-47
2022/06/20 08:43:36;;;;;;;;;;;20.10;53.80;;;;;;5142918;27;19933;-45
2022/06/20 08:46:03;;;;;;;;;;;20.10;53.30;;;;;;5148589;27;19967;-45
2022/06/20 08:48:46;;;;;;;;;;;20.10;53.00;;;;;;5161376;27;20025;-47
2022/06/20 08:51:30;;;;;;;;;;;20.00;53.20;;;;;;5140316;27;19927;-48
2022/06/20 08:54:02;;;;;;;;;;;20.50;59.80;;;;;;5168145;27;19977;-46
2022/06/20 08:56:34;;;;;;;;;;;21.30;61.90;;;;;;5163025;27;19967;-46
2022/06/20 08:59:18;;;;;;;;;;;21.80;61.00;;;;;;5144507;27;20390;-47
2022/06/20 09:01:48;;;;;;;;;;;21.10;58.60;;;;;;5168376;27;19930;-45
2022/06/20 09:04:34;;;;;;;;;;;20.70;56.70;;;;;;5161680;27;20034;-49
2022/06/20 09:07:06;;;;;;;;;;;20.60;55.30;;;;;;5143042;27;19991;-47
2022/06/20 09:09:37;;;;;;;;;;;20.30;55.00;;;;;;5167601;27;20039;-44
2022/06/20 09:12:14;;;;;;;;;;;20.30;54.40;;;;;;5162401;27;20380;-46
2022/06/20 09:14:43;;;;;;;;;;;20.30;53.80;;;;;;5162552;27;19923;-48
2022/06/20 09:17:24;;;;;;;;;;;20.20;53.10;;;;;;5168157;27;20378;-45
2022/06/20 09:19:56;;;;;;;;;;;20.10;53.70;;;;;;5162337;27;20009;-47
2022/06/20 09:22:37;;;;;;;;;;;20.20;56.50;;;;;;5161445;27;20077;-47
2022/06/20 09:25:22;;;;;;;;;;;20.90;60.90;;;;;;5166293;27;20126;-45
2022/06/20 09:27:52;;;;;;;;;;;21.60;61.70;;;;;;5162200;27;20013;-47
2022/06/20 09:30:18;;;;;;;;;;;21.70;59.60;;;;;;5162244;27;19949;-46
2022/06/20 09:32:50;;;;;;;;;;;20.90;57.70;;;;;;5167903;27;19933;-47
2022/06/20 09:35:19;;;;;;;;;;;20.80;56.10;;;;;;5162550;27;19945;-46
2022/06/20 09:38:04;;;;;;;;;;;20.40;54.90;;;;;;5124592;27;19925;-45
2022/06/20 09:40:29;;;;;;;;;;;20.30;54.60;;;;;;5166895;27;19988;-45
2022/06/20 09:43:02;;;;;;;;;;;20.40;54.00;;;;;;5160449;27;20278;-47
2022/06/20 09:45:37;;;;;;;;;;;20.40;53.70;;;;;;5143234;27;20314;-46
2022/06/20 09:48:10;;;;;;;;;;;20.20;53.70;;;;;;5170282;27;19922;-48
2022/06/20 09:50:52;;;;;;;;;;;20.10;53.70;;;;;;5148238;27;19972;-48
2022/06/20 09:53:22;;;;;;;;;;;20.00;55.40;;;;;;5148061;27;19926;-49
2022/06/20 09:55:59;;;;;;;;;;;20.80;60.70;;;;;;5171758;27;19978;-47
2022/06/20 09:58:45;;;;;;;;;;;21.50;61.90;;;;;;5130554;27;19944;-49
2022/06/20 10:01:29;;;;;;;;;;;21.80;60.30;;;;;;5163757;27;19927;-46
2022/06/20 10:03:55;;;;;;;;;;;21.10;57.90;;;;;;5170750;27;19926;-46
2022/06/20 10:06:24;;;;;;;;;;;20.70;56.20;;;;;;5165783;27;19929;-45
2022/06/20 10:09:02;;;;;;;;;;;20.70;55.10;;;;;;5147358;27;19934;-46
2022/06/20 10:11:36;;;;;;;;;;;20.60;54.30;;;;;;5152884;27;20449;-45
2022/06/20 10:14:21;;;;;;;;;;;20.30;53.90;;;;;;5145112;27;20293;-45
2022/06/20 10:16:48;;;;;;;;;;;20.30;53.80;;;;;;5165895;27;19923;-46
2022/06/20 10:19:17;;;;;;;;;;;20.20;53.80;;;;;;5168690;27;19945;-46
2022/06/20 10:21:44;;;;;;;;;;;20.20;53.60;;;;;;5164891;27;20322;-49
2022/06/20 10:24:10;;;;;;;;;;;20.00;53.30;;;;;;5146926;27;20366;-47
2022/06/20 10:26:36;;;;;;;;;;;20.40;58.60;;;;;;5171090;27;19922;-51
2022/06/20 10:29:31;;;;;;;;;;;21.00;61.50;;;;;;5165666;27;20491;-47
2022/06/20 10:32:14;;;;;;;;;;;21.70;61.60;;;;;;5072678;27;20288;-46
2022/06/20 10:34:44;;;;;;;;;;;21.40;58.80;;;;;;5170737;27;20390;-48
2022/06/20 10:37:16;;;;;;;;;;;20.90;57.00;;;;;;5143349;27;20363;-47
2022/06/20 10:39:59;;;;;;;;;;;20.80;55.50;;;;;;5164201;27;19922;-45
2022/06/20 10:42:30;;;;;;;;;;;20.70;54.50;;;;;;5150426;27;19933;-47
2022/06/20 10:44:59;;;;;;;;;;;20.50;54.40;;;;;;5145426;27;20026;-46
2022/06/20 10:47:28;;;;;;;;;;;20.40;53.70;;;;;;5165046;27;20416;-45
2022/06/20 10:50:00;;;;;;;;;;;20.40;53.40;;;;;;5152160;27;19923;-46
2022/06/20 10:52:32;;;;;;;;;;;20.30;53.60;;;;;;5164819;27;20322;-45
2022/06/20 10:55:07;;;;;;;;;;;20.10;53.40;;;;;;5163408;27;19922;-43
2022/06/20 10:57:36;;;;;;;;;;;20.10;53.30;;;;;;5150099;27;19929;-46
2022/06/20 11:00:04;;;;;;;;;;;20.70;59.30;;;;;;5163638;27;19930;-48
2022/06/20 11:02:33;;;;;;;;;;;21.30;60.90;;;;;;5150848;27;19956;-54
2022/06/20 11:05:05;;;;;;;;;;;21.90;60.00;;;;;;5167493;27;20348;-46
2022/06/20 11:07:42;;;;;;;;;;;21.20;58.10;;;;;;5146451;27;19927;-48
2022/06/20 11:10:14;;;;;;;;;;;20.80;56.10;;;;;;5170426;27;19945;-44
2022/06/20 11:12:52;;;;;;;;;;;20.80;54.80;;;;;;5164542;27;20273;-46
2022/06/20 11:15:31;;;;;;;;;;;20.70;54.10;;;;;;5162953;27;19930;-49
2022/06/20 11:18:03;;;;;;;;;;;20.50;53.80;;;;;;5150889;27;20394;-49
2022/06/20 11:20:50;;;;;;;;;;;20.30;53.30;;;;;;5148561;27;20017;-51
2022/06/20 11:23:20;;;;;;;;;;;20.30;53.30;;;;;;5164398;27;19922;-50
2022/06/20 11:25:46;;;;;;;;;;;20.30;53.10;;;;;;5149620;27;19923;-58
2022/06/20 11:28:31;;;;;;;;;;;20.10;53.10;;;;;;5166485;27;19947;-49
2022/06/20 11:31:07;;;;;;;;;;;20.30;56.80;;;;;;5163494;27;19938;-51
2022/06/20 11:34:01;;;;;;;;;;;21.20;60.40;;;;;;5164993;27;19933;-55
2022/06/20 11:36:48;;;;;;;;;;;21.80;60.60;;;;;;5169413;27;19923;-48
2022/06/20 11:39:20;;;;;;;;;;;21.30;58.40;;;;;;5144017;27;20014;-45
2022/06/20 11:41:53;;;;;;;;;;;20.80;56.30;;;;;;5145403;27;19975;-47
2022/06/20 11:44:38;;;;;;;;;;;20.50;55.20;;;;;;5151293;27;20400;-44
2022/06/20 11:47:07;;;;;;;;;;;20.30;54.40;;;;;;5163762;27;19923;-46
2022/06/20 11:49:41;;;;;;;;;;;20.30;53.60;;;;;;5143313;27;19933;-49
2022/06/20 11:52:12;;;;;;;;;;;20.30;53.50;;;;;;5167862;27;19937;-46
2022/06/20 11:54:43;;;;;;;;;;;20.20;53.10;;;;;;5163335;27;19931;-47
2022/06/20 11:57:15;;;;;;;;;;;20.20;53.20;;;;;;5163607;27;19933;-46
2022/06/20 11:59:43;;;;;;;;;;;20.30;52.40;;;;;;5169448;27;20288;-47
2022/06/20 12:02:22;;;;;;;;;;;20.60;58.80;;;;;;5164116;27;19929;-47
2022/06/20 12:05:21;;;;;;;;;;;21.30;60.80;;;;;;5145213;27;19926;-46
2022/06/20 12:07:49;;;;;;;;;;;22.00;60.20;;;;;;5110356;27;19933;-46
2022/06/20 12:10:19;;;;;;;;;;;21.20;57.50;;;;;;5161969;27;19966;-45
2022/06/20 12:12:54;;;;;;;;;;;20.80;56.00;;;;;;5144174;27;19951;-43
2022/06/20 12:15:29;;;;;;;;;;;20.60;55.00;;;;;;5168831;27;19922;-46
2022/06/20 12:18:14;;;;;;;;;;;20.40;54.50;;;;;;5163373;27;19923;-45
2022/06/20 12:23:39;;;;;;;;;;;20.20;53.70;;;;;;5168524;27;19974;-46
2022/06/20 12:26:06;;;;;;;;;;;20.20;52.90;;;;;;5162273;27;20013;-48
2022/06/20 12:28:33;;;;;;;;;;;20.00;53.20;;;;;;5161574;27;20362;-51
2022/06/20 12:31:05;;;;;;;;;;;20.10;53.80;;;;;;5149376;27;20278;-47
2022/06/20 12:33:31;;;;;;;;;;;20.60;59.50;;;;;;5162721;27;19922;-49
2022/06/20 12:35:58;;;;;;;;;;;21.40;60.60;;;;;;5144088;27;19923;-47
2022/06/20 12:38:32;;;;;;;;;;;21.90;60.00;;;;;;5168628;27;20002;-47
2022/06/20 12:40:58;;;;;;;;;;;21.20;57.80;;;;;;5163091;27;20438;-46
2022/06/20 12:43:34;;;;;;;;;;;20.80;56.10;;;;;;5144553;27;19975;-46
2022/06/20 12:46:12;;;;;;;;;;;20.40;55.50;;;;;;5166010;27;19923;-45
2022/06/20 12:48:37;;;;;;;;;;;20.20;54.50;;;;;;5162096;27;20263;-46
2022/06/20 12:51:03;;;;;;;;;;;20.10;53.60;;;;;;5163074;27;19930;-52
2022/06/20 12:53:47;;;;;;;;;;;20.00;53.60;;;;;;5167936;27;19923;-47
2022/06/20 12:56:25;;;;;;;;;;;20.10;52.90;;;;;;5127143;27;19930;-45
2022/06/20 12:58:57;;;;;;;;;;;20.00;52.70;;;;;;5144250;27;19929;-46
2022/06/20 13:01:38;;;;;;;;;;;19.80;54.80;;;;;;5168050;27;19926;-48
2022/06/20 13:04:17;;;;;;;;;;;20.60;59.80;;;;;;5160777;27;19930;-46
2022/06/20 13:06:46;;;;;;;;;;;21.30;60.90;;;;;;5142613;27;20368;-46
2022/06/20 13:09:15;;;;;;;;;;;21.80;59.90;;;;;;5167614;27;19923;-45
2022/06/20 13:12:10;;;;;;;;;;;21.10;57.70;;;;;;5162562;27;20347;-47
2022/06/20 13:14:36;;;;;;;;;;;20.60;56.10;;;;;;5070359;27;19924;-46
2022/06/20 13:17:16;;;;;;;;;;;20.30;54.90;;;;;;5168334;27;20328;-48
2022/06/20 13:19:51;;;;;;;;;;;20.30;54.20;;;;;;5162432;27;19937;-45
2022/06/20 13:22:17;;;;;;;;;;;20.20;53.60;;;;;;5126252;27;19973;-46
2022/06/20 13:24:52;;;;;;;;;;;20.10;53.30;;;;;;5171168;27;19927;-45
2022/06/20 13:27:37;;;;;;;;;;;20.10;53.00;;;;;;5166414;27;20409;-45
2022/06/20 13:30:20;;;;;;;;;;;19.80;53.30;;;;;;5166775;27;20253;-47
2022/06/20 13:33:04;;;;;;;;;;;20.30;57.20;;;;;;5152723;27;19934;-46
2022/06/20 13:35:35;;;;;;;;;;;21.10;60.50;;;;;;5166730;27;20286;-46
2022/06/20 13:38:01;;;;;;;;;;;21.80;61.00;;;;;;5147116;27;19967;-46
2022/06/20 13:40:42;;;;;;;;;;;21.40;59.10;;;;;;5170183;27;19974;-48
2022/06/20 13:43:27;;;;;;;;;;;20.80;57.40;;;;;;5165327;27;20594;-47
2022/06/20 13:46:01;;;;;;;;;;;20.50;55.40;;;;;;5165813;27;19923;-48
2022/06/20 13:48:35;;;;;;;;;;;20.30;54.60;;;;;;5153647;27;19926;-45
2022/06/20 13:51:06;;;;;;;;;;;20.00;53.90;;;;;;5166189;27;19923;-45
2022/06/20 13:53:33;;;;;;;;;;;20.30;58.40;;;;;;5166426;27;20129;-47
2022/06/20 13:56:02;;;;;;;;;;;21.10;61.60;;;;;;5151625;27;20005;-47
2022/06/20 13:58:36;;;;;;;;;;;21.80;61.30;;;;;;5164779;27;19934;-45
2022/06/20 14:01:07;;;;;;;;;;;21.30;58.50;;;;;;5164532;27;20050;-46
2022/06/20 14:03:37;;;;;;;;;;;20.80;56.90;;;;;;5170978;27;19936;-51
2022/06/20 14:06:14;;;;;;;;;;;20.60;55.60;;;;;;5165710;27;19926;-46
2022/06/20 14:08:44;;;;;;;;;;;20.20;54.70;;;;;;5145458;27;20657;-46
2022/06/20 14:11:24;;;;;;;;;;;20.10;54.10;;;;;;5152905;27;19966;-45
2022/06/20 14:13:51;;;;;;;;;;;20.10;53.60;;;;;;5165595;27;20289;-45
2022/06/20 14:16:19;;;;;;;;;;;20.00;53.30;;;;;;5164948;27;20659;-47
2022/06/20 14:18:49;;;;;;;;;;;20.00;53.20;;;;;;5169445;27;20425;-50
2022/06/20 14:21:14;;;;;;;;;;;19.80;53.00;;;;;;5144935;27;20047;-45
2022/06/20 14:23:40;;;;;;;;;;;20.30;57.80;;;;;;5152009;27;19930;-46
2022/06/20 14:26:07;;;;;;;;;;;20.90;61.00;;;;;;5146944;27;19973;-46
2022/06/20 14:28:37;;;;;;;;;;;21.60;61.30;;;;;;5165553;27;19929;-46
2022/06/20 14:31:20;;;;;;;;;;;21.50;59.40;;;;;;5152474;27;19971;-49
2022/06/20 14:33:47;;;;;;;;;;;20.80;57.50;;;;;;5163938;27;19934;-47
2022/06/20 14:36:15;;;;;;;;;;;20.30;55.70;;;;;;5163198;27;19927;-46
2022/06/20 14:38:55;;;;;;;;;;;20.10;55.10;;;;;;5169900;27;20010;-47
2022/06/20 14:41:39;;;;;;;;;;;20.20;53.90;;;;;;5164977;27;19929;-52
2022/06/20 14:44:24;;;;;;;;;;;20.00;55.70;;;;;;5165193;27;20014;-49
2022/06/20 14:46:58;;;;;;;;;;;20.90;60.60;;;;;;5170658;27;19974;-46
2022/06/20 14:49:24;;;;;;;;;;;21.60;61.20;;;;;;5147190;27;19923;-46
2022/06/20 14:51:51;;;;;;;;;;;21.40;59.10;;;;;;5165113;27;19929;-46
2022/06/20 14:54:30;;;;;;;;;;;20.90;57.30;;;;;;5168417;27;19927;-45